createdAt,value
2023-01-20T00:01:27.275Z,16.43
2023-01-20T00:03:56.932Z,18.13
2023-01-20T00:06:27.836Z,16.87
2023-01-20T00:08:57.840Z,18.93
2023-01-20T00:11:26.605Z,18.50
2023-01-20T00:13:55.981Z,17.60
2023-01-20T00:16:26.349Z,20.20
2023-01-20T00:18:55.335Z,18.50
2023-01-20T00:21:23.977Z,19.43
2023-01-20T00:23:52.106Z,18.27
2023-01-20T00:26:22.443Z,17.87
2023-01-20T00:28:51.732Z,19.03
2023-01-20T00:31:21.408Z,19.37
2023-01-20T00:33:52.708Z,18.37
2023-01-20T00:36:22.122Z,20.10
2023-01-20T00:38:50.789Z,19.03
2023-01-20T00:41:19.849Z,18.73
2023-01-20T00:43:47.969Z,17.93
2023-01-20T00:46:16.811Z,18.80
2023-01-20T00:48:44.828Z,17.77
2023-01-20T00:51:14.413Z,19.07
2023-01-20T00:53:42.887Z,18.67
2023-01-20T00:56:10.998Z,18.83
2023-01-20T00:58:39.004Z,18.23
2023-01-20T01:01:07.082Z,18.63
2023-01-20T01:03:35.120Z,19.20
2023-01-20T01:06:12.371Z,19.53
2023-01-20T01:08:41.832Z,19.87
2023-01-20T01:11:10.787Z,20.37
2023-01-20T01:13:39.348Z,19.20
2023-01-20T01:16:12.373Z,19.70
2023-01-20T01:18:40.570Z,20.13
2023-01-20T01:21:09.803Z,20.60
2023-01-20T01:23:37.828Z,19.40
2023-01-20T01:26:07.622Z,20.27
2023-01-20T01:28:35.892Z,20.20
2023-01-20T01:31:04.686Z,20.50
2023-01-20T01:33:33.662Z,20.90
2023-01-20T01:36:03.399Z,20.67
2023-01-20T01:38:31.658Z,20.37
2023-01-20T01:40:59.777Z,20.27
2023-01-20T01:43:31.154Z,21.53
2023-01-20T01:45:59.847Z,21.20
2023-01-20T01:48:32.447Z,21.30
2023-01-20T01:51:04.363Z,22.40
2023-01-20T01:53:38.350Z,22.47
2023-01-20T01:56:06.765Z,21.27
2023-01-20T01:58:38.657Z,22.77
2023-01-20T02:01:07.125Z,22.53
2023-01-20T02:03:43.403Z,22.63
2023-01-20T02:06:13.002Z,21.97
2023-01-20T02:08:41.391Z,22.27
2023-01-20T02:11:09.464Z,23.50
2023-01-20T02:13:39.135Z,24.33
2023-01-20T02:16:16.176Z,24.27
2023-01-20T02:18:55.662Z,23.50
2023-01-20T02:21:52.220Z,23.93
2023-01-20T02:24:43.198Z,23.83
2023-01-20T02:27:15.720Z,23.87
2023-01-20T02:30:23.565Z,24.63
2023-01-20T02:32:57.685Z,23.70
2023-01-20T02:35:30.741Z,23.77
2023-01-20T02:38:12.069Z,24.77
2023-01-20T02:40:48.699Z,24.90
2023-01-20T02:43:22.470Z,24.03
2023-01-20T02:45:58.260Z,25.13
2023-01-20T02:48:35.846Z,25.43
2023-01-20T02:51:10.377Z,23.70
2023-01-20T02:53:44.959Z,24.17
2023-01-20T02:56:14.128Z,23.03
2023-01-20T02:58:47.454Z,22.37
2023-01-20T03:01:21.504Z,21.30
2023-01-20T03:03:54.359Z,19.73
2023-01-20T03:06:25.471Z,20.80
2023-01-20T03:08:57.082Z,20.40
2023-01-20T03:11:25.088Z,20.57
2023-01-20T03:13:59.467Z,20.70
2023-01-20T03:16:29.439Z,20.23
2023-01-20T03:18:59.173Z,19.93
2023-01-20T03:21:28.127Z,20.80
2023-01-20T03:24:01.152Z,22.83
2023-01-20T03:26:31.079Z,23.87
2023-01-20T03:28:59.500Z,23.67
2023-01-20T03:31:30.762Z,21.67
2023-01-20T03:34:03.777Z,22.67
2023-01-20T03:36:33.834Z,24.17
2023-01-20T03:39:02.355Z,23.23
2023-01-20T03:41:37.683Z,23.37
2023-01-20T03:44:12.772Z,23.50
2023-01-20T03:46:47.238Z,22.97
2023-01-20T03:49:27.362Z,22.60
2023-01-20T03:52:09.768Z,21.00
2023-01-20T03:54:44.057Z,19.13
2023-01-20T03:57:18.001Z,18.07
2023-01-20T03:59:50.146Z,18.57
2023-01-20T04:02:18.455Z,18.10
2023-01-20T04:04:50.737Z,18.30
2023-01-20T04:07:23.396Z,17.80
2023-01-20T04:09:55.597Z,16.87
2023-01-20T04:12:23.861Z,14.93
2023-01-20T04:14:51.936Z,16.07
2023-01-20T04:17:20.207Z,15.60
2023-01-20T04:19:50.015Z,15.83
2023-01-20T04:22:23.252Z,16.50
2023-01-20T04:24:55.477Z,17.07
2023-01-20T04:27:23.457Z,16.77
2023-01-20T04:29:51.432Z,16.53
2023-01-20T04:32:19.484Z,17.23
2023-01-20T04:34:47.314Z,17.37
2023-01-20T04:37:16.783Z,17.23
2023-01-20T04:39:44.827Z,17.23
2023-01-20T04:42:13.479Z,16.43
2023-01-20T04:44:41.493Z,15.23
2023-01-20T04:47:09.664Z,16.43
2023-01-20T04:49:37.791Z,16.17
2023-01-20T04:52:06.247Z,16.27
2023-01-20T04:54:35.959Z,15.70
2023-01-20T04:57:04.073Z,15.53
2023-01-20T04:59:32.287Z,16.07
2023-01-20T05:02:00.475Z,16.60
2023-01-20T05:04:28.571Z,15.50
2023-01-20T05:06:56.595Z,16.13
2023-01-20T05:09:24.591Z,17.37
2023-01-20T05:11:54.077Z,15.43
2023-01-20T05:14:22.306Z,17.03
2023-01-20T05:16:50.321Z,15.90
2023-01-20T05:19:18.273Z,13.63
2023-01-20T05:21:46.299Z,13.17
2023-01-20T05:24:14.408Z,12.23
2023-01-20T05:26:42.425Z,13.23
2023-01-20T05:29:11.835Z,13.53
2023-01-20T05:31:43.288Z,13.90
2023-01-20T05:34:12.075Z,14.63
2023-01-20T05:36:40.099Z,16.83
2023-01-20T05:39:07.981Z,17.83
2023-01-20T05:41:35.920Z,17.03
2023-01-20T05:44:03.913Z,14.10
2023-01-20T05:46:33.477Z,17.70
2023-01-20T05:49:03.117Z,18.73
2023-01-20T05:51:32.161Z,17.63
2023-01-20T05:54:00.273Z,18.90
2023-01-20T05:56:28.272Z,19.23
2023-01-20T05:58:57.137Z,17.40
2023-01-20T06:01:25.944Z,18.20
2023-01-20T06:03:57.051Z,17.40
2023-01-20T06:06:25.752Z,16.67
2023-01-20T06:08:57.956Z,16.80
2023-01-20T06:11:26.504Z,16.07
2023-01-20T06:13:54.533Z,15.73
2023-01-20T06:16:22.963Z,15.83
2023-01-20T06:18:51.119Z,15.60
2023-01-20T06:21:20.587Z,15.60
2023-01-20T06:23:48.714Z,16.20
2023-01-20T06:26:16.831Z,15.23
2023-01-20T06:28:44.874Z,15.87
2023-01-20T06:31:14.798Z,15.80
2023-01-20T06:33:43.420Z,15.63
2023-01-20T06:36:13.834Z,14.80
2023-01-20T06:38:46.780Z,15.20
2023-01-20T06:41:14.899Z,15.60
2023-01-20T06:43:42.795Z,15.47
2023-01-20T06:46:13.112Z,15.27
2023-01-20T06:48:41.478Z,14.87
2023-01-20T06:51:12.081Z,14.03
2023-01-20T06:53:40.183Z,14.63
2023-01-20T06:56:12.581Z,14.80
2023-01-20T06:58:41.295Z,14.43
2023-01-20T07:01:12.786Z,14.57
2023-01-20T07:03:43.484Z,14.80
2023-01-20T07:06:17.558Z,14.27
2023-01-20T07:08:46.394Z,15.00
2023-01-20T07:11:15.798Z,14.50
2023-01-20T07:13:44.220Z,15.67
2023-01-20T07:16:15.547Z,14.00
2023-01-20T07:18:44.246Z,15.33
2023-01-20T07:21:13.429Z,14.80
2023-01-20T07:23:41.481Z,15.07
2023-01-20T07:26:12.124Z,14.33
2023-01-20T07:28:41.610Z,16.10
2023-01-20T07:31:11.056Z,15.70
2023-01-20T07:33:39.247Z,14.83
2023-01-20T07:36:08.687Z,15.17
2023-01-20T07:38:36.799Z,16.20
2023-01-20T07:41:06.834Z,15.17
2023-01-20T07:43:35.192Z,16.27
2023-01-20T07:46:06.306Z,15.30
2023-01-20T07:48:35.180Z,15.73
2023-01-20T07:51:05.837Z,15.80
2023-01-20T07:53:35.953Z,15.00
2023-01-20T07:56:05.625Z,16.40
2023-01-20T07:58:34.064Z,15.80
2023-01-20T08:01:09.579Z,15.87
2023-01-20T08:03:38.640Z,16.03
2023-01-20T08:06:07.847Z,15.43
2023-01-20T08:08:36.846Z,16.00
2023-01-20T08:11:05.927Z,17.37
2023-01-20T08:13:34.342Z,17.27
2023-01-20T08:16:03.473Z,16.77
2023-01-20T08:18:34.161Z,16.17
2023-01-20T08:21:06.362Z,16.83
2023-01-20T08:23:34.935Z,17.03
2023-01-20T08:26:05.117Z,16.50
2023-01-20T08:28:37.173Z,16.17
2023-01-20T08:31:06.970Z,17.13
2023-01-20T08:33:36.901Z,17.17
2023-01-20T08:36:07.513Z,16.67
2023-01-20T08:38:36.826Z,16.37
2023-01-20T08:41:08.854Z,16.17
2023-01-20T08:43:36.924Z,15.90
2023-01-20T08:46:07.702Z,32.43
2023-01-20T08:48:37.908Z,15.77
2023-01-20T08:51:07.782Z,14.60
2023-01-20T08:53:35.957Z,14.33
2023-01-20T08:56:04.788Z,15.00
2023-01-20T08:58:33.439Z,14.63
2023-01-20T09:01:01.685Z,15.43
2023-01-20T09:03:31.639Z,14.03
2023-01-20T09:06:04.661Z,14.60
2023-01-20T09:08:32.813Z,14.00
2023-01-20T09:11:05.310Z,16.20
2023-01-20T09:13:33.488Z,14.73
2023-01-20T09:16:01.605Z,14.20
2023-01-20T09:18:29.739Z,14.17
2023-01-20T09:20:58.643Z,14.30
2023-01-20T09:23:28.113Z,15.13
2023-01-20T09:25:56.432Z,14.20
2023-01-20T09:28:24.456Z,15.83
2023-01-20T09:30:58.197Z,16.30
2023-01-20T09:33:26.375Z,14.97
2023-01-20T09:35:57.713Z,15.77
2023-01-20T09:38:45.731Z,15.50
2023-01-20T09:41:36.444Z,15.27
2023-01-20T09:44:21.067Z,15.73
2023-01-20T09:47:20.549Z,15.50
2023-01-20T09:50:34.310Z,15.30
2023-01-20T09:53:08.078Z,15.63
2023-01-20T09:55:48.067Z,16.13
2023-01-20T09:58:26.093Z,15.50
2023-01-20T10:01:01.954Z,15.33
2023-01-20T10:03:38.068Z,16.10
2023-01-20T10:06:13.040Z,16.37
2023-01-20T10:09:03.923Z,16.43
2023-01-20T10:11:39.643Z,15.37
2023-01-20T10:14:16.653Z,16.23
2023-01-20T10:16:52.885Z,16.33
2023-01-20T10:19:28.166Z,15.83
2023-01-20T10:22:08.250Z,15.97
2023-01-20T10:24:42.037Z,15.53
2023-01-20T10:27:11.501Z,15.17
2023-01-20T10:29:42.955Z,15.80
2023-01-20T10:32:17.900Z,16.00
2023-01-20T10:34:48.218Z,14.90
2023-01-20T10:37:16.531Z,15.50
2023-01-20T10:39:51.049Z,14.83
2023-01-20T10:42:21.789Z,13.80
2023-01-20T10:44:52.327Z,14.40
2023-01-20T10:47:26.686Z,14.83
2023-01-20T10:50:28.345Z,14.53
2023-01-20T10:53:30.421Z,14.30
2023-01-20T10:56:08.927Z,14.03
2023-01-20T10:58:41.726Z,14.70
2023-01-20T11:01:14.474Z,14.63
2023-01-20T11:03:44.618Z,14.10
2023-01-20T11:06:20.619Z,14.90
2023-01-20T11:08:48.968Z,15.03
2023-01-20T11:11:20.623Z,14.23
2023-01-20T11:13:51.826Z,13.47
2023-01-20T11:16:24.660Z,13.93
2023-01-20T11:18:59.011Z,14.10
2023-01-20T11:21:29.017Z,13.63
2023-01-20T11:23:58.094Z,14.03
2023-01-20T11:26:29.096Z,13.47
2023-01-20T11:29:00.528Z,24.37
2023-01-20T11:31:38.587Z,14.27
2023-01-20T11:34:22.819Z,13.70
2023-01-20T11:36:51.641Z,12.47
2023-01-20T11:39:28.284Z,12.57
2023-01-20T11:42:13.349Z,12.50
2023-01-20T11:44:46.779Z,12.60
2023-01-20T11:47:23.800Z,12.17
2023-01-20T11:50:32.985Z,12.73
2023-01-20T11:53:28.543Z,11.73
2023-01-20T11:55:58.435Z,11.43
2023-01-20T11:58:28.800Z,12.10
2023-01-20T12:01:04.180Z,11.73
2023-01-20T12:04:13.875Z,11.43
2023-01-20T12:06:52.519Z,11.07
2023-01-20T12:09:24.440Z,10.47
2023-01-20T12:11:57.659Z,10.53
2023-01-20T12:14:30.675Z,10.67
2023-01-20T12:17:11.281Z,10.47
2023-01-20T12:19:55.149Z,9.80
2023-01-20T12:22:29.178Z,9.97
2023-01-20T12:25:09.171Z,9.93
2023-01-20T12:27:45.216Z,9.70
2023-01-20T12:30:45.706Z,9.50
2023-01-20T12:33:23.951Z,10.17
2023-01-20T12:36:10.135Z,9.67
2023-01-20T12:38:50.575Z,10.03
2023-01-20T12:41:35.926Z,9.37
2023-01-20T12:44:12.178Z,9.20
2023-01-20T12:46:45.547Z,9.83
2023-01-20T12:49:32.246Z,10.03
2023-01-20T12:52:13.502Z,9.40
2023-01-20T12:55:03.864Z,9.20
2023-01-20T12:57:46.623Z,8.73
2023-01-20T13:00:29.894Z,9.27
2023-01-20T13:03:17.776Z,9.37
2023-01-20T13:06:05.893Z,8.47
2023-01-20T13:08:41.676Z,8.80
2023-01-20T13:11:20.969Z,8.80
2023-01-20T13:14:04.237Z,8.33
2023-01-20T13:16:37.953Z,8.90
2023-01-20T13:19:13.749Z,9.10
2023-01-20T13:21:43.553Z,8.57
2023-01-20T13:24:19.709Z,8.27
2023-01-20T13:26:50.017Z,7.90
2023-01-20T13:29:23.701Z,9.00
2023-01-20T13:31:53.674Z,8.20
2023-01-20T13:34:40.958Z,8.37
2023-01-20T13:37:25.546Z,7.70
2023-01-20T13:39:54.515Z,7.47
2023-01-20T13:42:50.212Z,8.30
2023-01-20T13:45:27.776Z,8.30
2023-01-20T13:47:59.281Z,7.23
2023-01-20T13:50:30.671Z,7.87
2023-01-20T13:53:24.681Z,8.17
2023-01-20T13:56:25.850Z,7.80
2023-01-20T13:58:54.555Z,7.80
2023-01-20T14:01:22.603Z,8.40
2023-01-20T14:04:04.089Z,7.70
2023-01-20T14:06:34.305Z,8.33
2023-01-20T14:09:07.886Z,7.83
2023-01-20T14:11:49.971Z,7.57
2023-01-20T14:14:20.588Z,8.33
2023-01-20T14:33:44.840Z,8.57
2023-01-20T14:36:16.635Z,8.50
2023-01-20T14:38:56.890Z,9.03
2023-01-20T14:41:32.820Z,8.80
2023-01-20T14:44:01.848Z,8.23
2023-01-20T14:46:32.814Z,8.37
2023-01-20T14:49:33.985Z,8.37
2023-01-20T14:52:02.778Z,8.37
2023-01-20T14:54:35.250Z,8.47
2023-01-20T14:57:17.787Z,7.90
2023-01-20T14:59:45.955Z,8.37
2023-01-20T15:02:28.134Z,7.97
2023-01-20T15:04:57.784Z,8.30
2023-01-20T15:07:26.688Z,9.00
2023-01-20T15:10:01.729Z,7.67
2023-01-20T15:12:35.929Z,8.13
2023-01-20T15:15:14.658Z,8.17
2023-01-20T15:18:22.289Z,8.17
2023-01-20T15:21:03.842Z,7.40
2023-01-20T15:23:41.312Z,8.47
2023-01-20T15:26:11.407Z,7.47
2023-01-20T15:28:44.098Z,8.10
2023-01-20T15:31:15.390Z,7.13
2023-01-20T15:33:44.179Z,7.13
2023-01-20T15:36:22.917Z,6.80
2023-01-20T15:38:51.705Z,8.03
2023-01-20T15:41:20.251Z,6.90
2023-01-20T15:43:49.156Z,7.40
2023-01-20T15:46:18.439Z,7.13
2023-01-20T15:48:47.596Z,7.33
2023-01-20T15:51:19.992Z,6.90
2023-01-20T15:53:48.324Z,7.47
2023-01-20T15:56:20.752Z,6.67
2023-01-20T15:58:49.009Z,6.67
2023-01-20T16:01:19.267Z,6.00
2023-01-20T16:03:47.697Z,6.50
2023-01-20T16:06:18.763Z,7.57
2023-01-20T16:08:48.947Z,7.93
2023-01-20T16:11:18.524Z,7.67
2023-01-20T16:13:47.088Z,7.77
2023-01-20T16:16:17.086Z,6.87
2023-01-20T16:18:45.682Z,8.17
2023-01-20T16:21:15.299Z,7.27
2023-01-20T16:23:45.409Z,7.90
2023-01-20T16:26:22.327Z,8.10
2023-01-20T16:28:50.683Z,7.87
2023-01-20T16:31:18.819Z,7.97
2023-01-20T16:33:47.070Z,8.47
2023-01-20T16:36:17.422Z,8.50
2023-01-20T16:38:48.797Z,7.80
2023-01-20T16:41:21.368Z,8.87
2023-01-20T16:43:50.121Z,8.10
2023-01-20T16:46:20.935Z,8.67
2023-01-20T16:48:49.025Z,8.40
2023-01-20T16:51:19.581Z,8.57
2023-01-20T16:53:48.983Z,8.40
2023-01-20T16:56:17.924Z,8.47
2023-01-20T16:58:48.279Z,8.20
2023-01-20T17:01:20.859Z,8.60
2023-01-20T17:03:49.430Z,8.90
2023-01-20T17:06:19.162Z,8.90
2023-01-20T17:08:50.128Z,9.17
2023-01-20T17:11:18.524Z,9.50
2023-01-20T17:13:46.876Z,8.80
2023-01-20T17:16:15.142Z,8.80
2023-01-20T17:18:45.630Z,8.50
2023-01-20T17:21:14.896Z,8.70
2023-01-20T17:23:43.127Z,9.73
2023-01-20T17:26:12.438Z,8.87
2023-01-20T17:28:40.367Z,9.70
2023-01-20T17:31:08.668Z,8.77
2023-01-20T17:33:36.581Z,9.67
2023-01-20T17:36:06.644Z,9.17
2023-01-20T17:38:35.768Z,9.07
2023-01-20T17:41:05.267Z,9.87
2023-01-20T17:43:36.203Z,9.47
2023-01-20T17:46:13.420Z,9.83
2023-01-20T17:48:41.354Z,10.17
2023-01-20T17:51:13.565Z,10.07
2023-01-20T17:53:41.920Z,9.17
2023-01-20T17:56:13.461Z,9.53
2023-01-20T17:58:46.403Z,10.10
2023-01-20T18:01:16.212Z,9.93
2023-01-20T18:03:44.925Z,10.07
2023-01-20T18:06:14.245Z,9.47
2023-01-20T18:08:42.982Z,9.47
2023-01-20T18:11:15.061Z,9.37
2023-01-20T18:13:47.333Z,9.33
2023-01-20T18:16:17.647Z,10.00
2023-01-20T18:18:46.668Z,9.80
2023-01-20T18:21:16.678Z,10.00
2023-01-20T18:23:46.107Z,8.90
2023-01-20T18:26:15.966Z,9.73
2023-01-20T18:28:47.936Z,9.93
2023-01-20T18:31:17.699Z,10.10
2023-01-20T18:33:48.094Z,9.77
2023-01-20T18:36:18.551Z,9.60
2023-01-20T18:38:50.848Z,10.03
2023-01-20T18:41:21.534Z,10.20
2023-01-20T18:43:51.812Z,10.23
2023-01-20T18:46:20.469Z,10.20
2023-01-20T18:48:49.050Z,9.90
2023-01-20T18:51:20.330Z,10.20
2023-01-20T18:53:54.457Z,10.40
2023-01-20T18:56:22.920Z,10.20
2023-01-20T18:58:52.885Z,10.60
2023-01-20T19:01:22.481Z,10.17
2023-01-20T19:03:51.381Z,9.73
2023-01-20T19:06:21.711Z,10.20
2023-01-20T19:08:50.183Z,12.23
2023-01-20T19:11:20.827Z,10.97
2023-01-20T19:13:50.077Z,10.60
2023-01-20T19:16:20.960Z,10.27
2023-01-20T19:18:53.074Z,10.47
2023-01-20T19:21:22.132Z,10.93
2023-01-20T19:23:53.034Z,11.40
2023-01-20T19:26:22.761Z,11.17
2023-01-20T19:28:57.505Z,10.70
2023-01-20T19:31:27.664Z,10.80
2023-01-20T19:33:55.836Z,9.97
2023-01-20T19:36:24.395Z,10.90
2023-01-20T19:38:52.816Z,10.70
2023-01-20T19:41:22.828Z,10.80
2023-01-20T19:43:57.174Z,10.23
2023-01-20T19:46:28.627Z,11.00
2023-01-20T19:48:58.352Z,11.00
2023-01-20T19:51:27.839Z,10.50
2023-01-20T19:53:58.101Z,11.20
2023-01-20T19:56:28.101Z,10.70
2023-01-20T19:58:56.528Z,11.63
2023-01-20T20:01:31.315Z,11.90
2023-01-20T20:04:00.208Z,12.73
2023-01-20T20:06:30.860Z,12.70
2023-01-20T20:09:00.363Z,12.27
2023-01-20T20:11:28.870Z,12.40
2023-01-20T20:13:57.687Z,12.27
2023-01-20T20:16:28.989Z,12.53
2023-01-20T20:18:58.051Z,12.63
2023-01-20T20:21:27.241Z,12.60
2023-01-20T20:23:57.577Z,13.10
2023-01-20T20:26:28.699Z,13.63
2023-01-20T20:28:56.661Z,13.93
2023-01-20T20:31:28.959Z,13.87
2023-01-20T20:33:59.990Z,13.97
2023-01-20T20:36:31.083Z,13.93
2023-01-20T20:39:00.262Z,13.70
2023-01-20T20:41:30.480Z,13.83
2023-01-20T20:43:59.326Z,15.10
2023-01-20T20:46:27.532Z,15.13
2023-01-20T20:48:55.962Z,14.17
2023-01-20T20:51:25.246Z,14.87
2023-01-20T20:53:55.215Z,13.93
2023-01-20T20:56:24.549Z,14.20
2023-01-20T20:59:01.548Z,14.97
2023-01-20T21:01:32.897Z,14.70
2023-01-20T21:04:01.234Z,15.57
2023-01-20T21:06:31.539Z,15.00
2023-01-20T21:08:59.713Z,15.67
2023-01-20T21:11:27.991Z,15.63
2023-01-20T21:13:56.066Z,16.57
2023-01-20T21:16:25.249Z,16.30
2023-01-20T21:18:56.046Z,16.03
2023-01-20T21:21:25.675Z,17.60
2023-01-20T21:23:57.078Z,16.83
2023-01-20T21:26:29.646Z,16.87
2023-01-20T21:29:00.285Z,17.33
2023-01-20T21:31:28.308Z,17.67
2023-01-20T21:33:58.427Z,16.87
2023-01-20T21:36:27.347Z,17.07
2023-01-20T21:38:56.734Z,15.93
2023-01-20T21:41:24.591Z,17.00
2023-01-20T21:44:09.795Z,16.63
2023-01-20T21:46:40.094Z,16.43
2023-01-20T21:49:25.587Z,17.20
2023-01-20T21:52:10.875Z,16.83
2023-01-20T21:54:41.356Z,17.20
2023-01-20T21:57:09.981Z,17.77
2023-01-20T21:59:38.399Z,19.20
2023-01-20T22:02:06.668Z,18.70
2023-01-20T22:04:35.250Z,17.73
2023-01-20T22:07:03.129Z,18.43
2023-01-20T22:09:31.018Z,18.17
2023-01-20T22:12:00.477Z,18.47
2023-01-20T22:14:28.388Z,17.80
2023-01-20T22:16:56.443Z,18.40
2023-01-20T22:19:24.393Z,18.63
2023-01-20T22:21:52.861Z,17.83
2023-01-20T22:24:20.779Z,18.03
2023-01-20T22:26:49.200Z,17.90
2023-01-20T22:29:19.147Z,17.60
2023-01-20T22:31:47.452Z,18.80
2023-01-20T22:34:15.518Z,19.27
2023-01-20T22:36:44.983Z,18.90
2023-01-20T22:39:13.711Z,18.53
2023-01-20T22:41:42.394Z,19.10
2023-01-20T22:44:10.496Z,18.53
2023-01-20T22:46:39.756Z,20.10
2023-01-20T22:49:07.698Z,20.00
2023-01-20T22:51:35.572Z,20.97
2023-01-20T22:54:03.499Z,19.40
2023-01-20T22:56:33.974Z,19.90
2023-01-20T22:59:02.088Z,19.63
2023-01-20T23:01:32.274Z,19.80
2023-01-20T23:04:03.974Z,18.83
2023-01-20T23:06:34.009Z,19.43
2023-01-20T23:09:02.609Z,18.97
2023-01-20T23:11:31.108Z,18.70
2023-01-20T23:13:59.065Z,19.17
2023-01-20T23:16:27.084Z,18.60
2023-01-20T23:18:55.026Z,20.57
2023-01-20T23:21:24.713Z,18.80
2023-01-20T23:23:54.922Z,19.83
2023-01-20T23:26:28.643Z,20.47
2023-01-20T23:28:57.681Z,20.37
2023-01-20T23:31:28.494Z,19.90
2023-01-20T23:33:56.479Z,19.57
2023-01-20T23:36:27.318Z,19.93
2023-01-20T23:38:56.593Z,19.33
2023-01-20T23:41:25.217Z,19.93
2023-01-20T23:43:53.506Z,18.47
2023-01-20T23:46:21.876Z,19.00
2023-01-20T23:48:49.991Z,18.10
2023-01-20T23:51:18.018Z,19.10
2023-01-20T23:53:47.595Z,19.57
2023-01-20T23:56:17.485Z,19.73
2023-01-20T23:58:46.382Z,18.47
